Time;durP1;ratioP1;P1;durP2;ratioP2;P2;SDS_P1;SDS_P2;PMS_P1;PMS_P2;Temp;Humidity;BMP_temperature;BMP_pressure;BME280_temperature;BME280_humidity;BME280_pressure;Samples;Min_cycle;Max_cycle;Signal;HPM_P1;HPM_P2
2022/03/09 00:01:15;;;;;;;10.75;8.60;;;;;;;-0.45;63.93;101759.75;5028118;28;20032;-23
2022/03/09 00:03:40;;;;;;;11.25;8.30;;;;;;;-0.48;63.37;101763.09;5016116;28;20475;-23
2022/03/09 00:06:06;;;;;;;13.70;8.77;;;;;;;-0.51;63.70;101752.53;5033177;28;20026;-23
2022/03/09 00:08:32;;;;;;;11.18;8.27;;;;;;;-0.52;63.91;101758.56;5030660;28;20057;-23
2022/03/09 00:10:57;;;;;;;11.15;8.10;;;;;;;-0.54;64.25;101752.38;5027666;28;20021;-23
2022/03/09 00:13:22;;;;;;;12.13;8.50;;;;;;;-0.58;63.96;101747.84;5032124;28;20438;-23
2022/03/09 00:15:48;;;;;;;13.60;8.88;;;;;;;-0.61;63.62;101740.78;5029196;28;20053;-23
2022/03/09 00:18:13;;;;;;;12.40;8.45;;;;;;;-0.64;63.46;101745.81;5029252;28;20037;-23
2022/03/09 00:20:38;;;;;;;12.25;9.35;;;;;;;-0.66;64.04;101750.03;5030691;28;20395;-23
2022/03/09 00:23:04;;;;;;;12.23;8.68;;;;;;;-0.68;63.61;101754.22;5029566;28;20475;-23
2022/03/09 00:25:29;;;;;;;13.27;8.60;;;;;;;-0.71;63.48;101754.06;5029956;28;20025;-23
2022/03/09 00:27:54;;;;;;;12.23;9.52;;;;;;;-0.76;63.82;101753.81;5015275;28;20033;-23
2022/03/09 00:30:20;;;;;;;16.48;8.98;;;;;;;-0.76;63.83;101750.31;5029548;28;20065;-23
2022/03/09 00:32:45;;;;;;;13.52;8.73;;;;;;;-0.81;63.67;101748.38;5026864;28;20032;-23
2022/03/09 00:35:10;;;;;;;11.63;8.70;;;;;;;-0.82;63.85;101761.25;5028434;28;20063;-23
2022/03/09 00:37:36;;;;;;;8.82;7.72;;;;;;;-0.84;63.97;101762.88;5012160;28;20071;-23
2022/03/09 00:40:02;;;;;;;15.88;9.40;;;;;;;-0.88;64.00;101755.72;5028681;28;20566;-23
2022/03/09 00:42:28;;;;;;;12.00;9.13;;;;;;;-0.89;63.91;101759.13;5028030;28;20025;-23
2022/03/09 00:44:53;;;;;;;13.10;8.90;;;;;;;-0.92;64.29;101759.84;5027837;28;20124;-23
2022/03/09 00:47:18;;;;;;;13.60;8.35;;;;;;;-0.94;64.23;101756.25;5031243;28;20164;-23
2022/03/09 00:49:44;;;;;;;12.18;8.57;;;;;;;-0.98;64.04;101757.81;5028918;28;20511;-22
2022/03/09 00:52:09;;;;;;;9.98;8.57;;;;;;;-1.00;63.76;101756.81;5028948;28;20395;-22
2022/03/09 00:54:34;;;;;;;13.07;9.30;;;;;;;-1.02;63.80;101761.03;5025777;28;20025;-22
2022/03/09 00:57:00;;;;;;;10.02;8.52;;;;;;;-1.05;63.57;101761.75;5029001;28;20116;-23
2022/03/09 00:59:25;;;;;;;11.25;7.97;;;;;;;-1.07;63.63;101754.72;5029952;28;20660;-23
2022/03/09 01:01:50;;;;;;;9.70;8.30;;;;;;;-1.11;63.73;101757.91;5030195;28;20475;-23
2022/03/09 01:04:16;;;;;;;13.90;9.15;;;;;;;-1.12;64.42;101762.22;5028712;28;20066;-23
2022/03/09 01:06:41;;;;;;;15.10;9.05;;;;;;;-1.16;63.69;101761.13;5027996;28;20025;-23
2022/03/09 01:09:07;;;;;;;13.88;8.73;;;;;;;-1.17;64.57;101759.34;5026111;28;20037;-23
2022/03/09 01:11:32;;;;;;;14.18;9.38;;;;;;;-1.21;63.98;101754.81;5026266;28;20128;-23
2022/03/09 01:13:58;;;;;;;13.45;8.82;;;;;;;-1.23;64.45;101748.63;5030802;28;20020;-23
2022/03/09 01:16:23;;;;;;;11.13;8.45;;;;;;;-1.24;63.92;101746.00;5027877;28;20407;-23
2022/03/09 01:18:49;;;;;;;13.40;8.60;;;;;;;-1.29;64.06;101749.19;5031286;28;20428;-23
2022/03/09 01:21:14;;;;;;;11.77;8.20;;;;;;;-1.31;64.00;101744.72;5028370;28;20485;-23
2022/03/09 01:23:39;;;;;;;12.95;9.10;;;;;;;-1.33;63.89;101741.19;5025989;28;20082;-23
2022/03/09 01:26:05;;;;;;;12.48;8.77;;;;;;;-1.35;63.75;101742.78;5028872;28;20036;-23
2022/03/09 01:28:30;;;;;;;13.07;9.00;;;;;;;-1.37;64.31;101742.69;5028302;28;20087;-22
2022/03/09 01:30:55;;;;;;;11.32;8.55;;;;;;;-1.39;64.29;101740.81;5028631;28;20095;-22
2022/03/09 01:33:21;;;;;;;13.93;9.77;;;;;;;-1.43;64.42;101734.59;5027824;28;20029;-22
2022/03/09 01:35:46;;;;;;;11.18;8.57;;;;;;;-1.44;64.68;101738.84;5021646;28;20033;-23
2022/03/09 01:38:12;;;;;;;12.15;8.98;;;;;;;-1.46;64.36;101732.69;5027117;28;20025;-23
2022/03/09 01:40:37;;;;;;;11.00;8.52;;;;;;;-1.49;64.47;101716.09;5027867;28;21280;-23
2022/03/09 01:43:03;;;;;;;13.63;10.25;;;;;;;-1.53;64.33;101717.66;5022793;28;20029;-23
2022/03/09 01:45:28;;;;;;;12.07;9.30;;;;;;;-1.54;64.13;101721.00;5023811;28;20029;-22
2022/03/09 01:47:53;;;;;;;11.55;8.68;;;;;;;-1.55;64.48;101721.81;5023444;28;20468;-22
2022/03/09 01:50:19;;;;;;;13.30;8.48;;;;;;;-1.57;64.62;101720.88;5023675;28;20037;-23
2022/03/09 01:52:44;;;;;;;12.35;8.95;;;;;;;-1.60;64.83;101716.38;5022460;28;20041;-22
2022/03/09 01:55:10;;;;;;;11.35;8.70;;;;;;;-1.61;64.42;101718.88;5026584;28;20428;-22
2022/03/09 01:57:36;;;;;;;13.23;8.95;;;;;;;-1.64;64.29;101713.53;5028873;28;20437;-23
2022/03/09 02:00:03;;;;;;;12.35;9.32;;;;;;;-1.66;64.77;101710.88;5023029;28;20037;-22
2022/03/09 02:02:29;;;;;;;13.68;9.30;;;;;;;-1.68;64.51;101718.53;5012265;28;20387;-22
2022/03/09 02:04:54;;;;;;;14.60;8.85;;;;;;;-1.70;64.72;101714.09;5025847;28;20034;-22
2022/03/09 02:09:41;;;;;;;11.90;8.77;;;;;;;-1.73;64.60;101717.34;5032376;28;20024;-22
2022/03/09 02:10:09;;;;;;;10.88;8.35;;;;;;;-1.75;64.46;101718.97;5033124;28;20029;-22
2022/03/09 02:12:34;;;;;;;12.20;8.82;;;;;;;-1.78;64.86;101718.78;5033150;28;20029;-22
2022/03/09 02:15:01;;;;;;;10.90;9.20;;;;;;;-1.80;64.60;101712.66;5016615;28;20395;-23
2022/03/09 02:17:27;;;;;;;10.90;8.40;;;;;;;-1.82;64.35;101722.91;5016519;28;20061;-23
2022/03/09 02:19:53;;;;;;;13.85;9.93;;;;;;;-1.84;64.72;101724.50;5032038;28;20037;-23
2022/03/09 02:22:32;;;;;;;13.23;9.27;;;;;;;-1.86;64.41;101727.81;5031355;28;20025;-23
2022/03/09 02:24:58;;;;;;;13.07;9.20;;;;;;;-1.88;64.85;101729.41;5035716;28;20113;-23
2022/03/09 02:27:24;;;;;;;13.35;9.13;;;;;;;-1.90;64.35;101731.88;5029479;28;20037;-23
2022/03/09 02:29:51;;;;;;;10.18;8.35;;;;;;;-1.92;64.56;101740.38;5008629;28;21817;-22
2022/03/09 02:32:17;;;;;;;15.52;10.30;;;;;;;-1.95;64.13;101739.41;5032238;28;20166;-22
2022/03/09 02:34:42;;;;;;;11.20;8.45;;;;;;;-1.96;64.26;101747.06;5030808;28;20124;-22
2022/03/09 02:37:08;;;;;;;12.85;9.57;;;;;;;-1.99;64.23;101747.78;5030059;28;20026;-22
2022/03/09 02:39:33;;;;;;;13.00;9.27;;;;;;;-2.01;64.76;101761.38;5025602;28;20029;-22
2022/03/09 02:41:58;;;;;;;11.05;8.50;;;;;;;-2.02;64.27;101752.75;5027064;28;20037;-23
2022/03/09 02:44:24;;;;;;;12.43;9.57;;;;;;;-2.05;64.25;101747.41;5028971;28;20025;-23
2022/03/09 02:46:49;;;;;;;12.77;9.23;;;;;;;-2.06;64.80;101750.78;5032914;28;20534;-22
2022/03/09 02:49:15;;;;;;;14.45;8.93;;;;;;;-2.10;64.51;101749.69;5013336;28;20033;-22
2022/03/09 02:51:40;;;;;;;13.05;9.45;;;;;;;-2.09;64.43;101750.59;5030678;28;20059;-22
2022/03/09 02:54:05;;;;;;;13.80;9.13;;;;;;;-2.12;64.63;101746.16;5029662;28;20483;-22
2022/03/09 02:56:31;;;;;;;13.02;8.40;;;;;;;-2.15;64.40;101745.94;5026082;28;20376;-22
2022/03/09 02:58:57;;;;;;;12.52;9.88;;;;;;;-2.16;64.76;101753.63;5026112;28;20041;-23
2022/03/09 03:01:22;;;;;;;14.40;10.00;;;;;;;-2.19;64.67;101755.19;5027759;28;20033;-23
2022/03/09 03:03:47;;;;;;;10.95;8.52;;;;;;;-2.21;64.33;101761.97;5023526;28;20277;-23
2022/03/09 03:06:13;;;;;;;11.07;9.30;;;;;;;-2.22;64.77;101760.22;5029175;28;20065;-23
2022/03/09 03:08:39;;;;;;;13.02;9.75;;;;;;;-2.24;64.91;101761.78;5028568;28;20029;-23
2022/03/09 03:11:06;;;;;;;11.77;8.65;;;;;;;-2.26;64.19;101763.41;5025621;28;20021;-23
2022/03/09 03:13:32;;;;;;;12.65;9.23;;;;;;;-2.28;64.40;101765.00;5010908;28;20391;-23
2022/03/09 03:15:57;;;;;;;12.48;9.02;;;;;;;-2.30;64.59;101764.03;5032876;28;20030;-23
2022/03/09 03:18:23;;;;;;;12.70;9.15;;;;;;;-2.31;64.47;101769.97;5027023;28;20091;-23
2022/03/09 03:20:54;;;;;;;11.75;9.57;;;;;;;-2.33;64.41;101766.41;5027703;28;20060;-23
2022/03/09 03:23:22;;;;;;;10.82;8.60;;;;;;;-2.34;64.42;101772.34;5025147;28;20065;-23
2022/03/09 03:25:49;;;;;;;14.75;9.48;;;;;;;-2.37;64.74;101767.03;5026755;28;20086;-23
2022/03/09 03:28:14;;;;;;;12.95;9.90;;;;;;;-2.40;64.88;101765.13;5026809;28;20021;-22
2022/03/09 03:30:40;;;;;;;14.07;8.95;;;;;;;-2.41;64.52;101773.69;5027375;28;20364;-22
2022/03/09 03:33:05;;;;;;;12.02;9.20;;;;;;;-2.42;64.78;101765.81;5027267;28;20033;-22
2022/03/09 03:35:30;;;;;;;10.93;8.98;;;;;;;-2.45;64.45;101767.44;5034134;28;20026;-22
2022/03/09 03:37:56;;;;;;;14.25;9.27;;;;;;;-2.48;64.49;101762.06;5015349;28;20141;-22
2022/03/09 03:40:21;;;;;;;12.35;9.27;;;;;;;-2.49;64.64;101760.31;5040119;28;20024;-23
2022/03/09 03:42:46;;;;;;;15.65;9.60;;;;;;;-2.51;64.83;101756.72;5038614;28;20021;-22
2022/03/09 03:45:12;;;;;;;14.50;9.38;;;;;;;-2.53;64.55;101753.16;5028131;28;20387;-22
2022/03/09 03:47:37;;;;;;;14.05;9.55;;;;;;;-2.55;64.63;101752.16;5015689;28;20070;-23
2022/03/09 03:50:03;;;;;;;14.88;9.57;;;;;;;-2.57;64.76;101756.31;5015237;28;20479;-23
2022/03/09 03:52:29;;;;;;;15.10;9.85;;;;;;;-2.60;64.82;101753.56;5036878;28;20141;-23
2022/03/09 03:54:54;;;;;;;12.18;9.23;;;;;;;-2.63;64.68;101755.97;5014661;28;20036;-23
2022/03/09 03:57:19;;;;;;;16.05;10.35;;;;;;;-2.63;64.67;101759.41;5032833;28;20039;-23
2022/03/09 03:59:45;;;;;;;13.25;10.02;;;;;;;-2.64;64.77;101764.50;5029012;28;20464;-23
2022/03/09 04:02:10;;;;;;;12.02;9.00;;;;;;;-2.66;64.79;101755.75;5035695;28;20148;-23
2022/03/09 04:04:35;;;;;;;12.18;9.43;;;;;;;-2.67;64.46;101754.84;5015907;28;20037;-23
2022/03/09 04:07:01;;;;;;;13.70;8.90;;;;;;;-2.69;64.83;101760.72;5033483;28;20021;-23
2022/03/09 04:09:26;;;;;;;13.70;9.65;;;;;;;-2.71;64.93;101763.22;5031455;28;20064;-23
2022/03/09 04:11:51;;;;;;;13.73;9.18;;;;;;;-2.74;64.66;101769.09;5026784;28;20026;-22
2022/03/09 04:14:19;;;;;;;16.92;9.23;;;;;;;-2.74;64.71;101768.19;5032597;28;20035;-22
2022/03/09 04:16:47;;;;;;;11.82;9.40;;;;;;;-2.76;64.79;101775.88;5034335;28;20484;-23
2022/03/09 04:19:12;;;;;;;11.82;9.88;;;;;;;-2.77;64.77;101758.56;5037801;28;20028;-22
2022/03/09 04:21:38;;;;;;;13.57;9.38;;;;;;;-2.79;64.40;101767.91;5033128;28;20025;-22
2022/03/09 04:24:05;;;;;;;14.32;9.25;;;;;;;-2.80;64.62;101775.56;5027424;28;20041;-22
2022/03/09 04:26:30;;;;;;;13.95;9.82;;;;;;;-2.82;64.88;101778.03;5030191;28;20021;-22
2022/03/09 04:28:56;;;;;;;12.73;9.85;;;;;;;-2.84;64.55;101777.03;5039997;28;20044;-22
2022/03/09 04:31:21;;;;;;;11.18;8.85;;;;;;;-2.86;65.16;101776.06;5033508;28;20485;-22
2022/03/09 04:33:46;;;;;;;14.52;9.40;;;;;;;-2.86;64.87;101773.47;5032354;28;20022;-22
2022/03/09 04:36:12;;;;;;;12.52;8.77;;;;;;;-2.90;64.90;101781.84;5035723;28;20037;-22
2022/03/09 04:38:37;;;;;;;13.18;8.85;;;;;;;-2.90;64.46;101779.25;5026643;28;20021;-22
2022/03/09 04:41:02;;;;;;;13.20;9.05;;;;;;;-2.91;64.62;101790.34;5032752;28;20048;-22
2022/03/09 04:43:28;;;;;;;14.77;9.93;;;;;;;-2.92;64.63;101783.41;5032615;28;20484;-22
2022/03/09 04:45:53;;;;;;;13.88;10.05;;;;;;;-2.95;64.44;101789.28;5033150;28;20483;-22
2022/03/09 04:48:19;;;;;;;12.73;9.43;;;;;;;-2.97;64.55;101786.59;5030740;28;20040;-22
2022/03/09 04:50:44;;;;;;;16.20;9.32;;;;;;;-2.97;64.59;101799.50;5031403;28;20028;-22
2022/03/09 04:53:09;;;;;;;14.18;9.55;;;;;;;-2.99;64.64;101793.38;5034632;28;20029;-22
2022/03/09 04:55:35;;;;;;;14.23;9.27;;;;;;;-3.01;64.65;101789.78;5030169;28;20030;-23
2022/03/09 04:58:00;;;;;;;15.07;9.20;;;;;;;-3.03;64.38;101788.75;5031812;28;20087;-22
2022/03/09 05:00:25;;;;;;;11.93;8.73;;;;;;;-3.04;64.57;101794.72;5031082;28;20048;-23
2022/03/09 05:02:51;;;;;;;12.82;9.50;;;;;;;-3.06;64.61;101786.00;5027508;28;20448;-22
2022/03/09 05:05:17;;;;;;;11.40;9.25;;;;;;;-3.06;64.64;101790.28;5021036;28;20502;-22
2022/03/09 05:07:42;;;;;;;18.08;9.38;;;;;;;-3.10;64.40;101781.44;5027116;28;20383;-23
2022/03/09 05:10:09;;;;;;;14.90;9.77;;;;;;;-3.10;64.66;101786.59;5028909;28;20502;-23
2022/03/09 05:12:34;;;;;;;12.25;9.85;;;;;;;-3.12;64.58;101781.34;5034630;28;20021;-23
2022/03/09 05:15:00;;;;;;;13.13;9.27;;;;;;;-3.13;64.89;101788.97;5032492;28;20377;-23
2022/03/09 05:17:25;;;;;;;14.88;10.30;;;;;;;-3.15;64.66;101785.41;5037958;28;20026;-22
2022/03/09 05:19:50;;;;;;;13.30;9.48;;;;;;;-3.16;64.41;101794.84;5032301;28;20028;-22
2022/03/09 05:22:16;;;;;;;12.07;8.65;;;;;;;-3.17;64.93;101797.31;5028860;28;20360;-22
2022/03/09 05:24:41;;;;;;;12.07;9.15;;;;;;;-3.20;64.65;101794.53;5029334;28;20033;-23
2022/03/09 05:27:07;;;;;;;12.18;8.90;;;;;;;-3.20;64.83;101794.53;5027757;28;20029;-23
2022/03/09 05:29:32;;;;;;;14.07;9.45;;;;;;;-3.23;64.86;101788.38;5028852;28;20368;-23
2022/03/09 05:31:58;;;;;;;13.30;9.77;;;;;;;-3.25;64.70;101789.97;5032505;28;20035;-23
2022/03/09 05:34:23;;;;;;;15.68;9.27;;;;;;;-3.26;64.77;101783.03;5027456;28;20033;-22
2022/03/09 05:36:48;;;;;;;12.55;9.77;;;;;;;-3.28;64.52;101789.75;5029767;28;20039;-22
2022/03/09 05:39:14;;;;;;;13.55;9.20;;;;;;;-3.29;64.72;101793.16;5035097;28;20037;-22
2022/03/09 05:41:39;;;;;;;11.27;9.18;;;;;;;-3.30;64.77;101801.66;5035792;28;20037;-22
2022/03/09 05:44:05;;;;;;;11.48;9.40;;;;;;;-3.31;64.72;101817.06;5033580;28;20021;-22
2022/03/09 05:46:30;;;;;;;12.57;10.07;;;;;;;-3.32;64.88;101812.69;5019228;28;20463;-22
2022/03/09 05:48:56;;;;;;;13.88;10.32;;;;;;;-3.37;64.89;101805.53;5041769;28;20083;-22
2022/03/09 05:51:21;;;;;;;13.35;10.35;;;;;;;-3.36;64.71;101820.22;5034508;28;20025;-22
2022/03/09 05:53:47;;;;;;;14.80;10.40;;;;;;;-3.36;64.73;101811.59;5035732;28;20437;-22
2022/03/09 05:56:12;;;;;;;13.68;9.65;;;;;;;-3.38;64.66;101815.75;5031952;28;20029;-22
2022/03/09 05:58:38;;;;;;;12.00;9.90;;;;;;;-3.40;64.66;101822.50;5039946;28;20471;-22
2022/03/09 06:01:03;;;;;;;13.65;9.77;;;;;;;-3.41;64.80;101818.13;5037593;28;20525;-22
2022/03/09 06:03:28;;;;;;;13.98;10.57;;;;;;;-3.42;64.71;101818.91;5030755;28;20025;-22
2022/03/09 06:05:54;;;;;;;14.20;9.50;;;;;;;-3.44;64.71;101815.34;5035614;28;20029;-22
2022/03/09 06:08:19;;;;;;;13.73;10.18;;;;;;;-3.44;65.04;101828.25;5019267;28;20025;-22
2022/03/09 06:10:44;;;;;;;16.15;10.43;;;;;;;-3.45;64.73;101821.28;5033531;28;20109;-22
2022/03/09 06:13:10;;;;;;;18.40;11.82;;;;;;;-3.45;64.68;101829.03;5032057;28;20037;-22
2022/03/09 06:15:35;;;;;;;15.07;9.70;;;;;;;-3.47;65.07;101823.75;5039245;28;20037;-22
2022/03/09 06:18:01;;;;;;;15.27;10.55;;;;;;;-3.46;64.94;101840.16;5043309;28;20033;-22
2022/03/09 06:20:26;;;;;;;17.95;11.20;;;;;;;-3.48;64.97;101838.38;5043299;28;20113;-22
2022/03/09 06:22:52;;;;;;;14.82;10.27;;;;;;;-3.48;64.90;101832.28;5026045;28;20039;-22
2022/03/09 06:25:18;;;;;;;13.05;10.38;;;;;;;-3.48;64.84;101843.53;5037840;28;20206;-22
2022/03/09 06:27:46;;;;;;;14.23;9.93;;;;;;;-3.49;65.11;101841.75;5037864;28;20025;-22
2022/03/09 06:30:12;;;;;;;14.77;11.45;;;;;;;-3.49;64.83;101844.31;5041469;28;20040;-22
2022/03/09 06:32:38;;;;;;;13.88;11.27;;;;;;;-3.49;64.98;101840.84;5035346;28;20028;-22
2022/03/09 06:35:05;;;;;;;16.15;12.18;;;;;;;-3.49;64.98;101846.91;5042509;28;20025;-22
2022/03/09 06:37:30;;;;;;;16.92;11.95;;;;;;;-3.50;65.38;101839.94;5034408;28;20021;-22
2022/03/09 06:39:56;;;;;;;18.85;12.70;;;;;;;-3.48;65.01;101840.94;5035098;28;20044;-22
2022/03/09 06:42:25;;;;;;;20.30;12.27;;;;;;;-3.49;65.21;101846.91;5017150;28;20041;-22
2022/03/09 06:44:51;;;;;;;17.77;12.45;;;;;;;-3.48;65.00;101838.38;5033858;28;20029;-22
2022/03/09 06:47:17;;;;;;;16.13;12.25;;;;;;;-3.48;65.26;101847.78;5036138;28;20068;-22
2022/03/09 06:49:42;;;;;;;17.85;12.63;;;;;;;-3.46;65.40;101847.88;5030213;28;20419;-22
2022/03/09 06:52:08;;;;;;;23.15;13.45;;;;;;;-3.45;65.41;101847.09;5030518;28;20087;-22
2022/03/09 06:54:33;;;;;;;20.00;13.50;;;;;;;-3.46;65.25;101850.47;5034891;28;20068;-22
2022/03/09 06:56:59;;;;;;;23.17;14.52;;;;;;;-3.42;65.37;101842.13;5029326;28;20503;-22
2022/03/09 06:59:24;;;;;;;19.67;13.45;;;;;;;-3.44;65.32;101849.75;5037393;28;20032;-22
2022/03/09 07:01:49;;;;;;;20.20;15.60;;;;;;;-3.42;65.14;101842.13;5040029;28;20021;-22
2022/03/09 07:04:15;;;;;;;22.67;14.35;;;;;;;-3.40;65.14;101848.31;5030912;28;20029;-22
2022/03/09 07:06:40;;;;;;;19.92;13.95;;;;;;;-3.39;65.22;101844.94;5038929;28;20120;-22
2022/03/09 07:09:06;;;;;;;21.02;14.73;;;;;;;-3.37;65.26;101845.94;5017714;28;20491;-22
2022/03/09 07:11:31;;;;;;;24.35;14.55;;;;;;;-3.35;65.62;101852.06;5033799;28;20696;-22
2022/03/09 07:13:57;;;;;;;19.92;13.00;;;;;;;-3.33;65.38;101852.19;5034463;28;20283;-22
2022/03/09 07:16:22;;;;;;;21.02;14.82;;;;;;;-3.31;65.62;101851.50;5014252;28;20510;-22
2022/03/09 07:18:48;;;;;;;20.08;14.00;;;;;;;-3.28;65.61;101853.38;5034265;28;20040;-22
2022/03/09 07:21:13;;;;;;;24.25;14.52;;;;;;;-3.26;65.60;101857.88;5020109;28;20043;-22
2022/03/09 07:23:39;;;;;;;24.25;14.40;;;;;;;-3.22;65.59;101858.94;5037614;28;20478;-22
2022/03/09 07:26:05;;;;;;;20.67;13.88;;;;;;;-3.19;65.93;101854.00;5035249;28;20048;-22
2022/03/09 07:28:30;;;;;;;20.90;13.70;;;;;;;-3.15;65.77;101853.41;5037537;28;20112;-22
2022/03/09 07:30:56;;;;;;;18.40;13.60;;;;;;;-3.10;66.01;101845.97;5030529;28;20138;-22
2022/03/09 07:33:21;;;;;;;18.70;13.30;;;;;;;-3.05;65.74;101854.00;5034121;28;20109;-22
2022/03/09 07:35:47;;;;;;;19.45;13.50;;;;;;;-3.01;65.88;101854.31;5034302;28;20115;-22
2022/03/09 07:38:14;;;;;;;23.02;14.90;;;;;;;-2.96;66.13;101860.66;5031092;28;20059;-22
2022/03/09 07:40:39;;;;;;;21.08;13.18;;;;;;;-2.90;66.35;101854.13;5033145;28;20024;-22
2022/03/09 07:43:04;;;;;;;16.15;11.90;;;;;;;-2.85;65.79;101857.88;5031973;28;20021;-22
2022/03/09 07:45:30;;;;;;;21.63;13.00;;;;;;;-2.79;66.55;101866.06;5031834;28;20033;-22
2022/03/09 07:47:56;;;;;;;19.77;13.88;;;;;;;-2.73;66.65;101869.00;5036728;28;20148;-22
2022/03/09 07:50:22;;;;;;;18.58;12.02;;;;;;;-2.66;66.25;101864.25;5036643;28;20021;-22
2022/03/09 07:52:47;;;;;;;18.83;13.18;;;;;;;-2.60;66.48;101859.50;5035242;28;20029;-22
2022/03/09 07:55:14;;;;;;;17.05;12.60;;;;;;;-2.51;66.21;101867.81;5037674;28;20029;-22
2022/03/09 07:57:39;;;;;;;17.25;12.18;;;;;;;-2.45;66.30;101859.56;5034628;28;20825;-22
2022/03/09 08:00:06;;;;;;;19.42;12.82;;;;;;;-2.37;66.21;101860.94;5032976;28;20187;-22
2022/03/09 08:02:31;;;;;;;21.23;12.20;;;;;;;-2.29;66.54;101866.59;5025292;28;20044;-22
2022/03/09 08:04:57;;;;;;;18.55;13.75;;;;;;;-2.23;66.42;101863.50;5028383;28;20140;-22
2022/03/09 08:07:22;;;;;;;17.77;13.02;;;;;;;-2.16;66.47;101868.25;5035296;28;20049;-22
2022/03/09 08:09:48;;;;;;;16.85;12.45;;;;;;;-2.09;66.26;101872.13;5026633;28;20408;-22
2022/03/09 08:12:13;;;;;;;17.20;12.57;;;;;;;-1.99;66.31;101871.91;5027457;28;20025;-22
2022/03/09 08:14:39;;;;;;;18.52;12.18;;;;;;;-1.91;66.08;101855.97;5038155;28;20037;-22
2022/03/09 08:17:04;;;;;;;16.98;12.50;;;;;;;-1.82;65.74;101864.28;5032016;28;20026;-22
2022/03/09 08:19:29;;;;;;;15.38;12.20;;;;;;;-1.72;65.58;101868.31;5032990;28;20028;-22
2022/03/09 08:21:55;;;;;;;17.67;12.18;;;;;;;-1.62;65.82;101870.66;5031096;28;20080;-22
2022/03/09 08:24:21;;;;;;;19.55;11.95;;;;;;;-1.55;65.98;101859.88;5031814;28;20034;-22
2022/03/09 08:26:46;;;;;;;17.80;12.48;;;;;;;-1.45;65.76;101861.31;5035657;28;20013;-22
2022/03/09 08:29:12;;;;;;;21.02;12.55;;;;;;;-1.35;65.87;101861.84;5021135;28;20420;-22
2022/03/09 08:31:38;;;;;;;18.85;12.07;;;;;;;-1.26;65.72;101867.59;5035007;28;20029;-22
2022/03/09 08:34:03;;;;;;;14.80;12.32;;;;;;;-1.15;66.06;101863.03;5015061;28;20033;-22
2022/03/09 08:36:28;;;;;;;15.98;11.85;;;;;;;-1.05;65.60;101867.03;5034818;28;20029;-22
2022/03/09 08:38:55;;;;;;;18.70;11.45;;;;;;;-0.95;65.25;101869.34;5031665;28;20039;-22
2022/03/09 08:41:24;;;;;;;16.48;11.93;;;;;;;-0.84;65.75;101869.97;5038792;28;20033;-22
2022/03/09 08:43:50;;;;;;;20.48;11.43;;;;;;;-0.72;65.56;101872.38;5036955;28;20108;-22
2022/03/09 08:46:15;;;;;;;17.42;13.07;;;;;;;-0.61;65.05;101872.06;5020801;28;20417;-22
2022/03/09 08:48:40;;;;;;;15.52;11.77;;;;;;;-0.48;64.78;101877.13;5017814;28;20075;-22
2022/03/09 08:51:07;;;;;;;14.80;12.27;;;;;;;-0.37;64.95;101875.13;5045037;28;20463;-22
2022/03/09 08:53:33;;;;;;;15.25;11.38;;;;;;;-0.27;65.21;101874.84;5034884;28;20071;-22
2022/03/09 08:55:59;;;;;;;16.25;12.18;;;;;;;-0.13;64.66;101873.00;5030118;28;20025;-22
2022/03/09 08:58:24;;;;;;;14.52;10.85;;;;;;;-0.02;64.46;101875.28;5035053;28;20025;-22
2022/03/09 09:00:50;;;;;;;15.10;11.73;;;;;;;0.11;65.68;101869.94;5033128;28;20063;-22
2022/03/09 09:03:15;;;;;;;14.63;11.27;;;;;;;0.25;65.44;101870.69;5015531;28;20034;-22
2022/03/09 09:05:41;;;;;;;19.88;12.63;;;;;;;0.43;66.07;101871.56;5035050;28;20108;-22
2022/03/09 09:08:06;;;;;;;17.33;12.23;;;;;;;0.55;66.07;101869.59;5033093;28;20045;-22
2022/03/09 09:10:33;;;;;;;15.88;11.15;;;;;;;0.68;65.35;101863.31;5028964;28;20086;-22
2022/03/09 09:12:58;;;;;;;15.70;11.43;;;;;;;0.86;66.70;101873.75;5030704;28;20241;-22
2022/03/09 09:15:24;;;;;;;14.57;10.98;;;;;;;1.00;66.53;101864.03;5015041;28;20427;-22
2022/03/09 09:17:57;;;;;;;15.57;11.27;;;;;;;1.18;67.27;101873.56;5031362;28;20029;-22
2022/03/09 09:20:25;;;;;;;15.32;11.00;;;;;;;1.32;66.30;101868.13;5027898;28;20043;-22
2022/03/09 09:22:54;;;;;;;17.35;10.85;;;;;;;1.47;66.46;101868.00;5034619;28;20056;-22
2022/03/09 09:25:20;;;;;;;14.82;11.35;;;;;;;1.60;65.28;101861.66;5027076;28;20033;-22
2022/03/09 09:27:46;;;;;;;14.38;11.15;;;;;;;1.73;65.23;101865.75;5031710;28;20036;-22
2022/03/09 09:30:11;;;;;;;14.73;10.52;;;;;;;1.87;65.53;101862.03;5032770;28;20052;-22
2022/03/09 09:32:37;;;;;;;14.35;10.48;;;;;;;1.99;65.21;101855.63;5033070;28;20070;-22
2022/03/09 09:35:02;;;;;;;12.90;10.60;;;;;;;2.12;64.53;101850.16;5026960;28;20442;-22
2022/03/09 09:37:28;;;;;;;12.77;9.90;;;;;;;2.27;64.52;101851.66;5030611;28;20021;-22
2022/03/09 09:39:53;;;;;;;13.25;9.07;;;;;;;2.44;65.39;101842.84;5032709;28;20090;-22
2022/03/09 09:42:21;;;;;;;13.68;11.23;;;;;;;2.63;65.69;101848.00;5027531;28;20025;-22
2022/03/09 09:44:46;;;;;;;12.68;9.35;;;;;;;2.78;65.38;101837.31;5029328;28;20079;-22
2022/03/09 09:47:14;;;;;;;12.30;10.35;;;;;;;2.93;65.17;101848.38;5032243;28;20018;-22
2022/03/09 09:49:40;;;;;;;12.27;10.18;;;;;;;3.02;64.32;101842.66;5033637;28;20112;-22
2022/03/09 09:52:07;;;;;;;10.70;9.02;;;;;;;3.11;63.81;101842.16;5031125;28;20043;-22
2022/03/09 09:54:33;;;;;;;10.70;8.57;;;;;;;3.25;63.26;101845.31;5030359;28;20483;-22
2022/03/09 09:56:59;;;;;;;11.82;9.07;;;;;;;3.41;63.69;101840.69;5033133;28;20041;-22
2022/03/09 09:59:24;;;;;;;12.35;8.98;;;;;;;3.56;63.47;101840.41;5014764;28;20029;-22
2022/03/09 10:01:50;;;;;;;9.55;8.55;;;;;;;3.73;63.56;101843.66;5012968;28;21511;-22
2022/03/09 10:04:15;;;;;;;11.10;9.20;;;;;;;3.82;62.84;101833.56;5030917;28;20055;-22
2022/03/09 10:06:41;;;;;;;10.23;8.85;;;;;;;4.01;63.36;101841.19;5031873;28;20032;-22
2022/03/09 10:09:08;;;;;;;10.63;8.70;;;;;;;4.17;63.23;101834.81;5034077;28;20466;-22
2022/03/09 10:11:53;;;;;;;13.57;9.27;;;;;;;4.31;63.09;101837.91;5034986;28;20021;-22
2022/03/09 10:14:50;;;;;;;14.55;9.45;;;;;;;4.49;63.22;101846.41;5033413;28;20407;-22
2022/03/09 10:17:17;;;;;;;10.75;9.35;;;;;;;4.65;62.93;101843.44;5030812;28;20445;-22
2022/03/09 10:19:45;;;;;;;11.80;9.55;;;;;;;4.79;62.57;101841.28;5030449;28;20123;-22
2022/03/09 10:22:31;;;;;;;11.30;10.02;;;;;;;4.93;62.51;101845.25;5027016;28;20045;-22
2022/03/09 10:25:09;;;;;;;11.98;9.13;;;;;;;5.05;62.15;101854.34;5032336;28;20052;-22
2022/03/09 10:27:48;;;;;;;10.55;8.63;;;;;;;5.21;61.98;101851.41;5035701;28;20029;-22
2022/03/09 10:30:19;;;;;;;9.95;8.50;;;;;;;5.36;61.80;101850.09;5037694;28;20047;-22
2022/03/09 10:32:58;;;;;;;10.43;8.93;;;;;;;5.54;62.05;101846.28;5019991;28;20025;-22
2022/03/09 10:35:29;;;;;;;10.75;9.15;;;;;;;5.69;62.02;101841.50;5027005;28;20082;-22
2022/03/09 10:37:55;;;;;;;;;;;;;;;5.82;61.20;101839.25;5031558;28;20121;-22
2022/03/09 10:40:21;;;;;;;9.93;8.82;;;;;;;5.96;61.69;101842.25;5034920;28;20067;-22
2022/03/09 10:42:48;;;;;;;11.40;8.95;;;;;;;6.05;61.38;101831.19;5036454;28;20025;-22
2022/03/09 10:45:17;;;;;;;11.80;9.23;;;;;;;6.19;61.39;101835.09;5039042;28;20075;-22
2022/03/09 10:47:48;;;;;;;12.40;9.68;;;;;;;6.29;60.96;101838.84;5030764;28;20605;-22
2022/03/09 10:50:16;;;;;;;13.68;9.32;;;;;;;6.45;60.83;101839.28;5032962;28;20029;-23
2022/03/09 10:52:51;;;;;;;11.73;9.27;;;;;;;6.59;60.56;101837.91;5031269;28;20029;-22
2022/03/09 10:55:21;;;;;;;14.27;9.93;;;;;;;6.73;60.58;101838.25;5032764;28;20037;-23
2022/03/09 10:57:46;;;;;;;10.57;8.82;;;;;;;6.87;60.64;101842.97;5030888;28;20037;-22
2022/03/09 11:00:12;;;;;;;15.35;8.57;;;;;;;6.95;60.72;101838.81;5034243;28;20025;-23
2022/03/09 11:02:51;;;;;;;11.48;9.25;;;;;;;7.09;60.24;101839.16;5031431;28;20172;-22
2022/03/09 11:05:22;;;;;;;10.25;9.20;;;;;;;7.22;60.13;101827.22;5037961;28;20025;-22
2022/03/09 11:07:47;;;;;;;10.35;9.25;;;;;;;7.34;60.34;101821.38;5032383;28;20382;-22
2022/03/09 11:10:13;;;;;;;11.18;8.80;;;;;;;7.46;60.63;101830.38;5033323;28;20029;-22
2022/03/09 11:12:38;;;;;;;11.23;10.02;;;;;;;7.58;59.84;101810.50;5035822;28;20044;-22